Time;durP1;ratioP1;P1;durP2;ratioP2;P2;SDS_P1;SDS_P2;PMS_P1;PMS_P2;Temp;Humidity;BMP_temperature;BMP_pressure;BME280_temperature;BME280_humidity;BME280_pressure;Samples;Min_cycle;Max_cycle;Signal;HPM_P1;HPM_P2
2022/08/29 00:01:07;;;;;;;11.00;3.75;;;15.50;99.90;;;;;;5047245;28;20036;-50
2022/08/29 00:03:34;;;;;;;11.70;4.05;;;15.60;99.90;;;;;;5064372;28;20054;-48
2022/08/29 00:06:00;;;;;;;8.77;3.80;;;15.50;99.90;;;;;;5063288;28;20047;-48
2022/08/29 00:08:25;;;;;;;7.32;3.38;;;15.50;99.90;;;;;;5065111;28;20035;-46
2022/08/29 00:10:51;;;;;;;12.20;3.58;;;15.40;99.90;;;;;;5067276;28;20787;-44
2022/08/29 00:13:17;;;;;;;7.25;3.25;;;15.50;99.90;;;;;;5062054;28;20044;-47
2022/08/29 00:15:43;;;;;;;8.98;3.47;;;15.40;99.90;;;;;;5064059;28;20055;-48
2022/08/29 00:18:09;;;;;;;9.10;3.65;;;15.60;99.90;;;;;;5043471;28;20071;-49
2022/08/29 00:20:35;;;;;;;8.70;3.55;;;15.40;99.90;;;;;;5065065;28;20302;-45
2022/08/29 00:23:04;;;;;;;8.98;3.30;;;15.40;99.90;;;;;;5066385;28;20044;-49
2022/08/29 00:25:31;;;;;;;9.95;4.18;;;15.30;99.90;;;;;;5066722;28;20046;-48
2022/08/29 00:27:56;;;;;;;10.02;3.33;;;15.40;99.90;;;;;;5060903;28;21224;-49
2022/08/29 00:30:23;;;;;;;9.52;3.75;;;17.00;99.90;;;;;;5066804;28;20052;-46
2022/08/29 00:32:49;;;;;;;12.13;3.88;;;15.40;99.90;;;;;;5066342;28;20075;-47
2022/08/29 00:35:28;;;;;;;12.60;3.15;;;15.10;99.90;;;;;;5058016;28;20315;-47
2022/08/29 00:37:54;;;;;;;7.80;3.55;;;15.20;99.90;;;;;;5063405;28;20132;-48
2022/08/29 00:40:26;;;;;;;11.68;3.45;;;15.20;99.90;;;;;;5063857;28;20104;-47
2022/08/29 00:42:52;;;;;;;10.20;3.22;;;15.10;99.90;;;;;;5065438;28;20133;-47
2022/08/29 00:45:18;;;;;;;8.27;3.63;;;15.50;99.90;;;;;;5063166;28;20139;-47
2022/08/29 00:47:49;;;;;;;9.55;3.78;;;15.20;99.90;;;;;;5057847;28;20916;-45
2022/08/29 00:50:25;;;;;;;9.85;3.55;;;15.00;99.90;;;;;;5061616;28;20146;-47
2022/08/29 00:52:52;;;;;;;10.77;3.60;;;15.10;99.90;;;;;;5064670;28;20044;-46
2022/08/29 00:55:22;;;;;;;9.38;3.20;;;15.20;99.90;;;;;;5062857;28;20048;-46
2022/08/29 00:57:53;;;;;;;9.55;3.50;;;15.00;99.90;;;;;;5047272;28;20039;-46
2022/08/29 01:00:20;;;;;;;9.27;3.00;;;15.30;99.90;;;;;;5062377;28;20048;-45
2022/08/29 01:02:47;;;;;;;6.35;2.97;;;15.10;99.90;;;;;;5063071;28;20044;-45
2022/08/29 01:05:15;;;;;;;8.27;3.13;;;15.20;99.90;;;;;;5063051;28;20470;-47
2022/08/29 01:07:41;;;;;;;8.10;3.20;;;15.10;99.90;;;;;;5067313;28;20118;-45
2022/08/29 01:10:08;;;;;;;9.80;3.80;;;15.10;99.90;;;;;;5059764;28;20306;-47
2022/08/29 01:12:35;;;;;;;11.07;3.17;;;15.10;99.90;;;;;;5064978;28;20093;-45
2022/08/29 01:15:05;;;;;;;13.25;3.70;;;15.10;99.90;;;;;;5062445;28;20744;-47
2022/08/29 01:17:36;;;;;;;8.77;3.20;;;15.20;99.90;;;;;;5062683;28;20040;-46
2022/08/29 01:20:34;;;;;;;7.57;3.20;;;15.20;99.90;;;;;;5062682;28;20045;-48
2022/08/29 01:23:19;;;;;;;9.85;3.72;;;15.10;99.90;;;;;;5006942;28;20075;-45
2022/08/29 01:25:49;;;;;;;6.93;2.78;;;15.10;99.90;;;;;;5062974;28;20833;-44
2022/08/29 01:28:22;;;;;;;9.10;3.08;;;15.20;99.90;;;;;;5058216;28;20041;-44
2022/08/29 01:31:07;;;;;;;9.13;2.90;;;15.20;99.90;;;;;;5063580;28;20666;-47
2022/08/29 01:33:39;;;;;;;8.98;2.90;;;15.30;99.90;;;;;;5064218;28;20059;-45
2022/08/29 01:36:06;;;;;;;9.30;3.05;;;15.20;99.90;;;;;;5050199;28;20036;-44
2022/08/29 01:38:32;;;;;;;9.30;2.92;;;15.40;99.90;;;;;;5070060;28;20157;-46
2022/08/29 01:40:58;;;;;;;10.43;3.58;;;15.20;99.90;;;;;;5066864;28;20039;-46
2022/08/29 01:43:26;;;;;;;8.13;3.10;;;15.30;99.90;;;;;;5063324;28;20071;-45
2022/08/29 01:45:52;;;;;;;9.43;3.65;;;15.20;99.90;;;;;;5067780;28;20806;-44
2022/08/29 01:48:19;;;;;;;13.38;3.45;;;15.20;99.90;;;;;;5066506;28;20036;-45
2022/08/29 01:50:45;;;;;;;9.88;3.15;;;15.20;99.90;;;;;;5063535;28;20052;-48
2022/08/29 01:53:11;;;;;;;9.75;2.80;;;15.20;99.90;;;;;;5044268;28;20101;-48
2022/08/29 01:55:37;;;;;;;9.88;3.15;;;15.00;99.90;;;;;;5048160;28;20753;-47
2022/08/29 01:58:04;;;;;;;10.90;2.90;;;15.20;99.90;;;;;;5066892;28;20072;-46
2022/08/29 02:00:30;;;;;;;10.35;3.72;;;15.10;99.90;;;;;;5069066;28;20381;-47
2022/08/29 02:02:59;;;;;;;8.52;3.50;;;15.20;99.90;;;;;;5068362;28;20711;-45
2022/08/29 02:05:25;;;;;;;10.68;4.63;;;15.20;99.90;;;;;;5067171;28;20506;-45
2022/08/29 02:07:51;;;;;;;10.38;4.28;;;15.20;99.90;;;;;;5047532;28;20036;-46
2022/08/29 02:10:17;;;;;;;9.10;3.20;;;15.20;99.90;;;;;;5064138;28;20051;-48
2022/08/29 02:12:43;;;;;;;8.35;3.28;;;15.10;99.90;;;;;;5066882;28;20496;-44
2022/08/29 02:15:09;;;;;;;11.70;3.50;;;15.10;99.90;;;;;;5063282;28;20044;-48
2022/08/29 02:17:36;;;;;;;12.23;3.35;;;15.20;99.90;;;;;;5068191;28;20049;-49
2022/08/29 02:20:06;;;;;;;9.25;3.47;;;15.00;99.90;;;;;;5021702;28;20051;-44
2022/08/29 02:22:32;;;;;;;11.15;3.60;;;15.20;99.90;;;;;;5047694;28;20048;-44
2022/08/29 02:24:58;;;;;;;9.50;3.45;;;15.10;99.90;;;;;;5065452;28;21476;-49
2022/08/29 02:27:23;;;;;;;7.35;2.90;;;15.20;99.90;;;;;;5066886;28;20523;-44
2022/08/29 02:29:49;;;;;;;8.95;2.92;;;15.30;99.90;;;;;;5067267;28;20445;-44
2022/08/29 02:32:15;;;;;;;9.68;3.22;;;15.10;99.90;;;;;;5050820;28;20123;-45
2022/08/29 02:34:45;;;;;;;10.10;3.15;;;15.20;99.90;;;;;;5065210;28;20086;-46
2022/08/29 02:37:12;;;;;;;8.35;3.00;;;15.30;99.90;;;;;;5068808;28;20040;-47
2022/08/29 02:39:38;;;;;;;7.43;2.85;;;15.30;99.90;;;;;;5065529;28;20412;-47
2022/08/29 02:42:04;;;;;;;10.40;3.85;;;15.40;99.90;;;;;;5063863;28;20039;-45
2022/08/29 02:44:30;;;;;;;8.50;3.30;;;15.50;99.90;;;;;;5043815;28;20248;-47
2022/08/29 02:46:56;;;;;;;5.85;2.90;;;15.10;99.90;;;;;;5067246;28;20051;-48
2022/08/29 02:49:22;;;;;;;12.52;3.30;;;15.20;99.90;;;;;;5064773;28;20071;-49
2022/08/29 02:51:47;;;;;;;7.25;2.83;;;16.60;99.90;;;;;;5047004;28;20029;-47
2022/08/29 02:54:13;;;;;;;9.50;3.22;;;15.40;99.90;;;;;;5066508;28;20708;-48
2022/08/29 02:56:40;;;;;;;12.95;3.90;;;15.30;99.90;;;;;;5048871;28;20048;-47
2022/08/29 02:59:07;;;;;;;8.85;3.00;;;16.40;99.90;;;;;;5063391;28;20068;-45
2022/08/29 03:01:33;;;;;;;8.80;2.80;;;15.40;99.90;;;;;;5061017;28;20044;-47
2022/08/29 03:03:59;;;;;;;13.93;3.47;;;15.20;99.90;;;;;;5065921;28;20104;-48
2022/08/29 03:06:25;;;;;;;11.23;2.60;;;15.10;99.90;;;;;;5062339;28;20056;-45
2022/08/29 03:08:51;;;;;;;9.43;2.80;;;15.20;99.90;;;;;;5068984;28;20036;-49
2022/08/29 03:11:17;;;;;;;10.65;2.70;;;15.40;99.90;;;;;;5046398;28;20101;-45
2022/08/29 03:13:44;;;;;;;8.73;3.10;;;15.40;99.90;;;;;;5067449;28;20040;-46
2022/08/29 03:16:10;;;;;;;10.55;2.78;;;15.50;99.90;;;;;;5064630;28;22045;-47
2022/08/29 03:18:36;;;;;;;12.70;2.80;;;15.40;99.90;;;;;;5066770;28;20059;-49
2022/08/29 03:21:02;;;;;;;6.70;2.65;;;15.40;99.90;;;;;;5064740;28;20078;-48
2022/08/29 03:23:27;;;;;;;12.00;3.47;;;15.40;99.90;;;;;;5068445;28;20373;-46
2022/08/29 03:25:54;;;;;;;11.00;3.17;;;15.30;99.90;;;;;;5063585;28;20044;-48
2022/08/29 03:28:20;;;;;;;7.30;3.30;;;15.30;99.90;;;;;;5065574;28;20062;-47
2022/08/29 03:30:46;;;;;;;9.88;2.97;;;15.40;99.90;;;;;;5060551;28;20044;-45
2022/08/29 03:33:12;;;;;;;11.00;2.65;;;15.40;99.90;;;;;;5063386;28;20075;-45
2022/08/29 03:35:38;;;;;;;8.32;3.25;;;15.30;99.90;;;;;;5062849;28;20179;-45
2022/08/29 03:38:04;;;;;;;11.43;2.63;;;15.40;99.90;;;;;;5067116;28;20471;-46
2022/08/29 03:40:30;;;;;;;8.13;2.70;;;15.40;99.90;;;;;;5063856;28;20055;-45
2022/08/29 03:42:55;;;;;;;7.30;2.50;;;15.20;99.90;;;;;;5065200;28;20036;-47
2022/08/29 03:45:22;;;;;;;11.68;2.90;;;15.40;99.90;;;;;;5066631;28;20307;-45
2022/08/29 03:47:50;;;;;;;9.05;2.60;;;15.30;99.90;;;;;;5063404;28;20083;-48
2022/08/29 03:50:18;;;;;;;8.65;2.58;;;15.30;99.90;;;;;;5062500;28;20048;-45
2022/08/29 03:52:45;;;;;;;12.93;3.13;;;15.40;99.90;;;;;;5065810;28;20036;-45
2022/08/29 03:55:12;;;;;;;9.52;2.40;;;15.30;99.90;;;;;;5062745;28;20177;-46
2022/08/29 03:57:38;;;;;;;9.05;2.65;;;15.30;99.90;;;;;;5039799;28;20462;-49
2022/08/29 04:00:12;;;;;;;8.82;2.40;;;15.30;99.90;;;;;;5051423;28;20115;-47
2022/08/29 04:02:39;;;;;;;11.35;3.03;;;15.30;99.90;;;;;;5066107;28;20043;-45
2022/08/29 04:05:08;;;;;;;6.55;2.40;;;15.30;99.90;;;;;;5063344;28;20047;-46
2022/08/29 04:07:40;;;;;;;5.97;2.25;;;15.40;99.90;;;;;;5066706;28;20538;-49
2022/08/29 04:10:07;;;;;;;;;;;15.30;99.90;;;;;;5066545;28;20036;-47
2022/08/29 04:12:33;;;;;;;8.23;2.30;;;15.20;99.90;;;;;;5064488;28;20011;-48
2022/08/29 04:14:59;;;;;;;8.20;2.28;;;15.10;99.90;;;;;;5065143;28;20047;-46
2022/08/29 04:17:25;;;;;;;10.15;2.35;;;15.30;99.90;;;;;;5061197;28;20051;-47
2022/08/29 04:19:50;;;;;;;10.73;2.30;;;15.30;99.90;;;;;;5065588;28;20417;-46
2022/08/29 04:22:16;;;;;;;7.45;2.05;;;15.20;99.90;;;;;;5065327;28;20127;-43
2022/08/29 04:24:42;;;;;;;10.05;2.58;;;15.00;99.90;;;;;;5059000;28;20493;-46
2022/08/29 04:27:07;;;;;;;9.82;2.70;;;15.30;99.90;;;;;;5063752;28;20100;-45
2022/08/29 04:29:34;;;;;;;11.10;2.30;;;15.30;99.90;;;;;;5064545;28;20364;-47
2022/08/29 04:32:00;;;;;;;10.52;2.03;;;15.20;99.90;;;;;;5064375;28;20450;-44
2022/08/29 04:34:26;;;;;;;16.05;2.90;;;15.00;99.90;;;;;;5065205;28;20501;-44
2022/08/29 04:36:52;;;;;;;9.32;2.25;;;15.10;99.90;;;;;;5065302;28;20047;-45
2022/08/29 04:39:17;;;;;;;11.35;2.60;;;15.10;99.90;;;;;;5063817;28;20385;-45
2022/08/29 04:41:43;;;;;;;8.82;2.88;;;15.00;99.90;;;;;;5045723;28;20477;-45
2022/08/29 04:44:10;;;;;;;10.85;2.17;;;15.00;99.90;;;;;;5063046;28;20114;-44
2022/08/29 04:46:37;;;;;;;11.25;3.00;;;15.10;99.90;;;;;;5047552;28;20052;-45
2022/08/29 04:49:03;;;;;;;13.00;2.80;;;15.00;99.90;;;;;;5062143;28;20516;-45
2022/08/29 04:51:29;;;;;;;7.07;2.35;;;14.90;99.90;;;;;;5046370;28;20094;-48
2022/08/29 04:53:55;;;;;;;11.00;2.38;;;16.20;99.90;;;;;;5061621;28;20036;-44
2022/08/29 04:56:21;;;;;;;12.32;2.28;;;14.90;99.90;;;;;;5043721;28;20110;-45
2022/08/29 04:58:49;;;;;;;11.30;2.60;;;14.80;99.90;;;;;;5065349;28;20128;-47
2022/08/29 05:01:17;;;;;;;11.15;2.70;;;15.00;99.90;;;;;;5046844;28;20407;-44
2022/08/29 05:03:44;;;;;;;11.40;2.90;;;15.10;99.90;;;;;;5063322;28;20106;-44
2022/08/29 05:06:11;;;;;;;9.63;2.70;;;15.10;99.90;;;;;;5062152;28;20628;-44
2022/08/29 05:08:40;;;;;;;9.77;2.97;;;15.10;99.90;;;;;;5063827;28;20040;-46
2022/08/29 05:11:10;;;;;;;9.93;3.05;;;15.30;99.90;;;;;;5067978;28;20844;-47
2022/08/29 05:13:36;;;;;;;7.95;3.05;;;15.00;99.90;;;;;;5066367;28;20044;-48
2022/08/29 05:16:09;;;;;;;8.82;2.58;;;15.10;99.90;;;;;;5068476;28;20058;-48
2022/08/29 05:18:35;;;;;;;8.20;2.30;;;15.30;99.90;;;;;;5064391;28;20059;-47
2022/08/29 05:21:01;;;;;;;8.40;2.65;;;15.20;99.90;;;;;;5069003;28;20036;-46
2022/08/29 05:23:27;;;;;;;7.60;2.25;;;15.50;99.90;;;;;;5063967;28;20079;-45
2022/08/29 05:26:00;;;;;;;9.30;2.58;;;15.30;99.90;;;;;;5066195;28;20051;-48
2022/08/29 05:28:27;;;;;;;10.85;2.90;;;15.30;99.90;;;;;;5065901;28;20044;-47
2022/08/29 05:30:53;;;;;;;9.68;2.33;;;15.40;99.90;;;;;;5059985;28;20426;-48
2022/08/29 05:33:19;;;;;;;10.85;2.83;;;15.80;99.90;;;;;;5068820;28;20592;-44
2022/08/29 05:35:45;;;;;;;9.07;2.72;;;15.30;99.90;;;;;;5069851;28;20822;-47
2022/08/29 05:38:11;;;;;;;8.10;2.90;;;17.10;99.90;;;;;;5047988;28;20047;-44
2022/08/29 05:40:37;;;;;;;7.82;2.85;;;15.50;99.90;;;;;;5067928;28;20036;-47
2022/08/29 05:43:05;;;;;;;9.55;2.83;;;15.60;99.90;;;;;;5065034;28;20036;-45
2022/08/29 05:45:31;;;;;;;7.65;2.63;;;15.70;99.90;;;;;;5066488;28;20114;-44
2022/08/29 05:48:03;;;;;;;9.23;2.55;;;15.50;99.90;;;;;;5067889;28;20080;-48
2022/08/29 05:50:28;;;;;;;9.48;2.85;;;15.60;99.90;;;;;;5070494;28;20040;-45
2022/08/29 05:52:54;;;;;;;9.30;2.70;;;15.70;99.90;;;;;;5045508;28;20516;-46
2022/08/29 05:55:20;;;;;;;12.93;3.33;;;15.80;99.90;;;;;;5062663;28;20048;-45
2022/08/29 05:57:48;;;;;;;9.90;2.85;;;15.80;99.90;;;;;;5064893;28;20404;-48
2022/08/29 06:00:15;;;;;;;11.65;2.85;;;15.70;99.90;;;;;;5070323;28;20431;-46
2022/08/29 06:02:41;;;;;;;7.85;2.28;;;15.90;99.90;;;;;;5065380;28;20048;-47
2022/08/29 06:05:07;;;;;;;13.57;2.70;;;16.20;99.90;;;;;;5067076;28;20041;-47
2022/08/29 06:07:33;;;;;;;14.70;4.50;;;16.10;99.90;;;;;;5065249;28;20037;-47
2022/08/29 06:10:00;;;;;;;10.40;2.42;;;16.20;99.90;;;;;;5038702;28;20043;-44
2022/08/29 06:12:26;;;;;;;9.07;2.63;;;16.60;99.90;;;;;;5062851;28;20052;-49
2022/08/29 06:14:52;;;;;;;10.95;2.60;;;16.40;99.90;;;;;;5062610;28;20120;-48
2022/08/29 06:17:18;;;;;;;7.32;2.00;;;16.40;99.90;;;;;;5064907;28;20499;-44
2022/08/29 06:19:43;;;;;;;9.30;1.95;;;16.60;99.90;;;;;;5066712;28;20276;-45
2022/08/29 06:22:10;;;;;;;9.10;2.45;;;16.70;99.90;;;;;;5071323;28;20036;-49
2022/08/29 06:24:37;;;;;;;8.35;2.08;;;16.60;99.90;;;;;;5066578;28;20599;-47
2022/08/29 06:27:03;;;;;;;6.85;2.00;;;16.80;99.90;;;;;;5067958;28;20028;-47
2022/08/29 06:29:29;;;;;;;6.47;1.83;;;16.90;99.90;;;;;;5045895;28;20139;-44
2022/08/29 06:31:56;;;;;;;7.63;2.20;;;16.80;99.90;;;;;;5064177;28;20470;-47
2022/08/29 06:34:22;;;;;;;9.98;2.22;;;16.90;99.90;;;;;;5062378;28;20036;-48
2022/08/29 06:36:50;;;;;;;7.50;1.85;;;17.00;99.90;;;;;;5064869;28;20052;-47
2022/08/29 06:39:16;;;;;;;9.70;2.40;;;17.10;99.90;;;;;;5066417;28;20768;-46
2022/08/29 06:41:43;;;;;;;7.40;2.10;;;17.00;99.90;;;;;;5068712;28;20048;-48
2022/08/29 06:44:09;;;;;;;7.20;1.70;;;17.10;99.90;;;;;;5066287;28;20528;-47
2022/08/29 06:46:38;;;;;;;6.60;1.83;;;17.20;99.90;;;;;;5064090;28;20068;-46
2022/08/29 06:49:06;;;;;;;6.57;1.73;;;17.30;99.90;;;;;;5061222;28;20069;-48
2022/08/29 06:51:35;;;;;;;7.97;1.85;;;17.20;99.90;;;;;;5066386;28;20048;-46
2022/08/29 06:54:04;;;;;;;8.82;2.30;;;17.40;99.90;;;;;;5066628;28;20491;-45
2022/08/29 06:56:30;;;;;;;10.93;2.33;;;17.40;99.90;;;;;;5063952;28;20064;-49
2022/08/29 06:58:56;;;;;;;9.25;2.00;;;17.70;99.90;;;;;;5037516;28;20539;-47
2022/08/29 07:01:22;;;;;;;11.38;2.15;;;17.90;99.90;;;;;;5067480;28;20666;-45
2022/08/29 07:03:51;;;;;;;9.77;2.17;;;17.80;99.90;;;;;;5065293;28;20396;-49
2022/08/29 07:06:16;;;;;;;8.80;2.30;;;17.70;99.90;;;;;;5066955;28;20059;-48
2022/08/29 07:08:42;;;;;;;10.85;2.38;;;17.90;99.90;;;;;;5063534;28;20440;-48
2022/08/29 07:11:09;;;;;;;12.60;2.65;;;17.50;99.90;;;;;;5053004;28;20131;-47
2022/08/29 07:13:34;;;;;;;12.13;2.45;;;17.60;99.90;;;;;;5066118;28;20556;-48
2022/08/29 07:16:00;;;;;;;12.02;2.38;;;17.50;99.90;;;;;;5064722;28;20037;-49
2022/08/29 07:18:27;;;;;;;14.07;2.90;;;17.60;99.90;;;;;;5067153;28;20176;-46
2022/08/29 07:20:53;;;;;;;22.35;3.42;;;17.70;99.90;;;;;;5065999;28;20226;-46
2022/08/29 07:23:20;;;;;;;9.15;2.40;;;17.80;99.90;;;;;;5049858;28;20036;-49
2022/08/29 07:25:46;;;;;;;13.63;2.70;;;17.80;99.90;;;;;;5060298;28;20054;-49
2022/08/29 07:28:12;;;;;;;9.88;2.30;;;18.00;99.90;;;;;;5061872;28;20040;-46
2022/08/29 07:30:38;;;;;;;10.48;2.42;;;18.00;99.90;;;;;;5066154;28;20036;-48
2022/08/29 07:33:03;;;;;;;10.10;2.40;;;18.20;99.90;;;;;;5059692;28;20051;-49
2022/08/29 07:35:29;;;;;;;9.43;2.50;;;18.30;99.90;;;;;;5065044;28;20032;-46
2022/08/29 07:37:57;;;;;;;12.35;2.28;;;18.80;99.90;;;;;;5062224;28;20153;-46
2022/08/29 07:40:23;;;;;;;11.45;2.38;;;19.60;99.90;;;;;;5034728;28;20840;-49
2022/08/29 07:42:48;;;;;;;10.77;2.20;;;20.20;99.90;;;;;;5063791;28;20044;-46
2022/08/29 07:45:16;;;;;;;14.93;2.70;;;20.30;99.90;;;;;;5063502;28;20093;-49
2022/08/29 07:47:43;;;;;;;12.50;2.95;;;20.60;99.90;;;;;;5068584;28;20516;-48
2022/08/29 07:50:11;;;;;;;7.88;1.92;;;20.30;99.90;;;;;;5064416;28;20036;-47
2022/08/29 07:52:37;;;;;;;14.40;2.95;;;20.00;99.90;;;;;;5065302;28;20319;-46
2022/08/29 07:55:04;;;;;;;11.63;2.70;;;19.90;99.90;;;;;;5064238;28;20040;-45
2022/08/29 07:57:30;;;;;;;12.43;2.58;;;19.60;99.90;;;;;;5059574;28;20059;-45
2022/08/29 07:59:56;;;;;;;10.02;2.50;;;19.50;99.90;;;;;;5065419;28;20028;-46
2022/08/29 08:02:22;;;;;;;10.95;2.53;;;19.30;99.90;;;;;;5063980;28;20154;-47
2022/08/29 08:04:48;;;;;;;11.02;2.28;;;19.30;99.90;;;;;;5063675;28;20050;-49
2022/08/29 08:07:14;;;;;;;10.77;2.30;;;19.10;99.90;;;;;;5061070;28;20044;-44
2022/08/29 08:09:39;;;;;;;9.07;2.40;;;19.20;99.90;;;;;;5057404;28;20040;-47
2022/08/29 08:12:05;;;;;;;10.95;2.40;;;19.20;99.90;;;;;;5063557;28;20070;-45
2022/08/29 08:14:32;;;;;;;9.80;2.45;;;19.30;99.90;;;;;;5065274;28;20040;-45
2022/08/29 08:16:58;;;;;;;8.52;2.58;;;19.30;99.90;;;;;;5034905;28;20041;-46
2022/08/29 08:19:24;;;;;;;14.18;2.95;;;20.00;99.90;;;;;;5059786;28;20044;-45
2022/08/29 08:21:50;;;;;;;11.93;2.55;;;20.30;99.90;;;;;;5048722;28;20044;-46
2022/08/29 08:24:17;;;;;;;13.23;2.97;;;20.40;99.90;;;;;;5060909;28;20081;-46
2022/08/29 08:26:44;;;;;;;13.43;2.80;;;20.40;99.90;;;;;;5035720;28;20114;-47
2022/08/29 08:29:11;;;;;;;12.25;2.65;;;20.10;99.90;;;;;;5067203;28;20089;-45
2022/08/29 08:31:43;;;;;;;11.77;2.55;;;19.90;99.90;;;;;;5065422;28;20040;-45
2022/08/29 08:34:08;;;;;;;11.23;3.40;;;19.80;99.90;;;;;;5061837;28;20127;-46
2022/08/29 08:36:37;;;;;;;10.38;2.20;;;20.00;99.90;;;;;;5065264;28;20048;-45
2022/08/29 08:39:04;;;;;;;8.95;2.63;;;19.90;99.90;;;;;;5062160;28;20093;-46
2022/08/29 08:41:50;;;;;;;14.57;2.83;;;20.00;99.90;;;;;;5062086;28;20037;-49
2022/08/29 08:44:25;;;;;;;9.93;2.33;;;20.10;99.90;;;;;;5063765;28;20044;-48
2022/08/29 08:46:57;;;;;;;11.07;2.50;;;20.20;99.90;;;;;;5066917;28;20542;-49
2022/08/29 08:49:50;;;;;;;10.25;2.47;;;20.10;99.90;;;;;;5067503;28;20050;-45
2022/08/29 08:52:44;;;;;;;9.23;2.30;;;20.20;99.90;;;;;;5067980;28;20566;-46
2022/08/29 08:55:54;;;;;;;9.88;2.75;;;20.30;99.90;;;;;;5036928;28;20083;-47
2022/08/29 08:58:41;;;;;;;13.30;2.90;;;20.60;99.90;;;;;;5063699;28;20366;-48
2022/08/29 09:02:00;;;;;;;11.43;2.38;;;20.50;99.90;;;;;;5063286;28;20043;-49
2022/08/29 09:04:41;;;;;;;9.25;2.55;;;20.30;99.90;;;;;;4951303;28;20095;-47
2022/08/29 09:07:25;;;;;;;12.38;2.90;;;20.60;99.90;;;;;;4934380;28;20043;-47
2022/08/29 09:10:12;;;;;;;14.60;2.60;;;20.50;99.90;;;;;;5034178;28;20053;-47
2022/08/29 09:13:06;;;;;;;10.90;2.60;;;20.60;99.90;;;;;;5063361;28;20040;-47
2022/08/29 09:15:44;;;;;;;10.60;2.47;;;19.50;99.90;;;;;;5056448;28;20090;-45
2022/08/29 09:18:32;;;;;;;10.25;2.58;;;21.10;99.90;;;;;;5058507;28;20055;-50
2022/08/29 09:20:58;;;;;;;12.43;2.75;;;20.90;99.90;;;;;;5061876;28;20120;-46
2022/08/29 09:23:24;;;;;;;12.73;2.65;;;20.90;99.90;;;;;;5063630;28;20126;-47
2022/08/29 09:25:50;;;;;;;11.85;2.72;;;20.90;99.90;;;;;;5062699;28;20097;-44
2022/08/29 09:28:16;;;;;;;14.45;3.00;;;20.70;99.90;;;;;;5065896;28;20044;-45
2022/08/29 09:31:03;;;;;;;11.20;2.67;;;20.60;99.90;;;;;;5060453;28;20044;-46
2022/08/29 09:33:44;;;;;;;9.73;2.55;;;20.60;99.90;;;;;;5042977;28;20090;-47
2022/08/29 09:36:13;;;;;;;9.83;2.73;;;20.50;99.90;;;;;;5059444;28;20496;-45
2022/08/29 09:38:38;;;;;;;10.45;2.83;;;19.40;99.90;;;;;;5059405;28;20680;-45
2022/08/29 09:41:06;;;;;;;13.98;2.95;;;21.00;99.90;;;;;;5061062;28;20077;-48
2022/08/29 09:43:38;;;;;;;12.60;3.55;;;20.90;99.90;;;;;;5063042;28;20036;-48
2022/08/29 09:46:10;;;;;;;11.63;2.83;;;20.50;99.90;;;;;;5060785;28;20558;-48
2022/08/29 09:48:59;;;;;;;13.30;3.13;;;21.10;99.90;;;;;;5040644;28;20470;-45
2022/08/29 09:51:31;;;;;;;14.68;2.75;;;21.30;99.90;;;;;;5025558;28;20040;-48
2022/08/29 09:54:14;;;;;;;;;;;20.80;99.90;;;;;;5060253;28;20037;-49
2022/08/29 09:57:09;;;;;;;14.30;3.17;;;21.30;99.90;;;;;;5059581;28;19924;-46
2022/08/29 09:59:41;;;;;;;10.93;2.70;;;21.20;99.90;;;;;;5043270;28;20037;-46
2022/08/29 10:02:18;;;;;;;13.32;3.40;;;21.80;99.90;;;;;;5039456;28;20040;-45
2022/08/29 10:04:47;;;;;;;8.13;2.60;;;21.40;99.90;;;;;;5050093;28;20048;-45
2022/08/29 10:07:26;;;;;;;12.75;3.17;;;21.60;99.90;;;;;;5063738;28;20066;-44
2022/08/29 10:10:02;;;;;;;12.52;3.70;;;21.30;99.90;;;;;;5066039;28;20040;-45
2022/08/29 10:12:39;;;;;;;12.73;2.83;;;21.40;99.90;;;;;;5041377;28;20036;-46
2022/08/29 10:15:11;;;;;;;12.20;3.45;;;21.50;99.90;;;;;;5062614;28;20043;-48
2022/08/29 10:20:54;;;;;;;15.35;3.80;;;21.20;99.90;;;;;;5061362;28;20135;-45
2022/08/29 10:23:49;;;;;;;13.02;3.25;;;21.10;99.90;;;;;;5061251;28;20044;-46
2022/08/29 10:26:39;;;;;;;11.40;3.33;;;20.90;99.90;;;;;;5049931;28;20066;-44
2022/08/29 10:29:20;;;;;;;14.25;3.92;;;20.80;99.90;;;;;;5064177;28;20049;-45
2022/08/29 10:32:00;;;;;;;12.80;3.40;;;20.70;99.90;;;;;;5064908;28;20051;-48
2022/08/29 10:34:59;;;;;;;13.75;3.35;;;18.80;99.90;;;;;;5060400;28;20040;-48
2022/08/29 10:37:49;;;;;;;10.90;2.72;;;20.70;99.90;;;;;;5062401;28;20054;-46
2022/08/29 10:40:29;;;;;;;13.43;3.75;;;20.40;99.90;;;;;;5060902;28;20056;-49
2022/08/29 10:43:20;;;;;;;11.98;3.10;;;20.60;99.90;;;;;;5059099;28;20516;-49
2022/08/29 10:46:15;;;;;;;12.10;3.05;;;20.40;99.90;;;;;;5049486;28;20071;-49
2022/08/29 10:48:54;;;;;;;19.17;3.67;;;20.60;99.90;;;;;;5052154;28;20419;-49
2022/08/29 10:51:21;;;;;;;12.98;3.00;;;20.50;99.90;;;;;;5061282;28;20083;-47
2022/08/29 10:53:56;;;;;;;13.98;3.45;;;20.40;99.90;;;;;;5064762;28;20071;-48
2022/08/29 10:56:42;;;;;;;13.70;3.15;;;20.50;99.90;;;;;;5066724;28;20511;-49
2022/08/29 10:59:22;;;;;;;11.88;3.03;;;20.60;99.90;;;;;;5065662;28;20136;-47
2022/08/29 11:02:02;;;;;;;7.38;2.65;;;20.60;99.90;;;;;;5067205;28;20827;-46
2022/08/29 11:04:44;;;;;;;11.93;3.20;;;20.60;99.90;;;;;;5059161;28;20445;-49
2022/08/29 11:07:27;;;;;;;;;;;20.70;99.90;;;;;;5061111;28;20149;-49
2022/08/29 11:10:02;;;;;;;9.18;3.25;;;20.40;99.90;;;;;;5062366;28;20555;-45
2022/08/29 11:12:43;;;;;;;14.13;4.03;;;20.60;99.90;;;;;;5060742;28;20052;-47
2022/08/29 11:15:41;;;;;;;11.85;3.45;;;20.70;99.90;;;;;;5063674;28;20055;-48
2022/08/29 11:18:48;;;;;;;13.30;3.10;;;20.50;99.90;;;;;;5063707;28;20066;-50
2022/08/29 11:21:35;;;;;;;15.52;3.35;;;20.60;99.90;;;;;;5035557;28;21271;-45
2022/08/29 11:24:02;;;;;;;10.48;3.22;;;20.30;99.90;;;;;;5062585;28;20048;-50
2022/08/29 11:27:07;;;;;;;12.23;3.38;;;20.50;99.90;;;;;;5060150;28;20396;-45
2022/08/29 11:29:49;;;;;;;18.00;3.78;;;20.70;99.90;;;;;;5066155;28;20190;-45
2022/08/29 11:32:42;;;;;;;12.52;3.30;;;20.70;99.90;;;;;;5058102;28;20052;-46
2022/08/29 11:35:23;;;;;;;9.73;3.13;;;20.80;99.90;;;;;;5065802;28;20111;-47
2022/08/29 11:38:11;;;;;;;13.57;3.50;;;20.70;99.90;;;;;;5065134;28;20118;-46
2022/08/29 11:40:56;;;;;;;9.85;2.85;;;20.80;99.90;;;;;;5061888;28;20290;-48
2022/08/29 11:43:27;;;;;;;11.80;2.85;;;20.60;99.90;;;;;;5063350;28;20040;-46
2022/08/29 11:46:04;;;;;;;11.35;3.00;;;20.40;99.90;;;;;;5059068;28;20052;-45
2022/08/29 11:48:46;;;;;;;11.32;3.30;;;20.50;99.90;;;;;;5065808;28;20059;-45
2022/08/29 11:51:36;;;;;;;12.80;3.42;;;20.30;99.90;;;;;;5067848;28;20492;-45
2022/08/29 11:54:23;;;;;;;12.15;2.92;;;20.40;99.90;;;;;;5065885;28;20048;-46
2022/08/29 11:56:50;;;;;;;10.52;2.80;;;20.30;99.90;;;;;;5061248;28;20041;-45
2022/08/29 11:59:48;;;;;;;13.65;3.50;;;20.20;99.90;;;;;;5063960;28;20682;-46
2022/08/29 12:02:26;;;;;;;13.05;3.30;;;20.10;99.90;;;;;;5034829;28;20103;-46
2022/08/29 12:04:57;;;;;;;11.70;2.65;;;19.90;99.90;;;;;;5042211;28;20040;-45
2022/08/29 12:07:33;;;;;;;12.77;3.10;;;20.10;99.90;;;;;;5068001;28;20037;-46
2022/08/29 12:10:03;;;;;;;12.07;2.70;;;20.00;99.90;;;;;;5064283;28;20052;-45
2022/08/29 12:12:45;;;;;;;12.07;3.42;;;20.10;99.90;;;;;;5066666;28;20044;-45
2022/08/29 12:15:26;;;;;;;10.98;2.95;;;20.00;99.90;;;;;;5059608;28;20082;-48
2022/08/29 12:18:15;;;;;;;17.70;3.13;;;20.00;99.90;;;;;;5057402;28;20047;-49
2022/08/29 12:20:47;;;;;;;11.85;3.50;;;19.90;99.90;;;;;;5062996;28;20048;-46
2022/08/29 12:23:13;;;;;;;11.52;3.28;;;20.00;99.90;;;;;;5058025;28;20121;-46
2022/08/29 12:25:42;;;;;;;13.98;2.60;;;19.90;99.90;;;;;;5059772;28;20488;-47
2022/08/29 12:28:16;;;;;;;13.88;2.90;;;19.90;99.90;;;;;;5065215;28;20094;-45
2022/08/29 12:31:02;;;;;;;12.15;3.03;;;19.90;99.90;;;;;;5059472;28;20045;-45
2022/08/29 12:33:40;;;;;;;16.00;3.17;;;19.90;99.90;;;;;;5066472;28;20063;-46
2022/08/29 12:36:27;;;;;;;10.70;3.08;;;19.80;99.90;;;;;;5068613;28;20054;-47
2022/08/29 12:39:30;;;;;;;8.82;2.75;;;19.90;99.90;;;;;;5065415;28;20044;-47
2022/08/29 12:42:17;;;;;;;9.18;2.30;;;20.10;99.90;;;;;;5063498;28;20044;-46
2022/08/29 12:44:47;;;;;;;11.57;2.53;;;20.10;99.90;;;;;;5069458;28;20043;-49
2022/08/29 12:47:20;;;;;;;9.95;3.28;;;20.20;99.90;;;;;;5064152;28;20202;-47
2022/08/29 12:49:51;;;;;;;8.10;2.92;;;20.30;99.90;;;;;;5064200;28;20522;-45
2022/08/29 12:52:33;;;;;;;12.68;3.35;;;20.30;99.90;;;;;;5062738;28;20500;-48
2022/08/29 12:55:35;;;;;;;12.15;2.60;;;20.40;99.90;;;;;;5063364;28;20040;-49
2022/08/29 12:58:01;;;;;;;12.27;2.63;;;20.50;99.90;;;;;;5064076;28;20044;-44
2022/08/29 13:00:30;;;;;;;8.65;2.15;;;20.30;99.90;;;;;;5066593;28;20518;-45
2022/08/29 13:03:15;;;;;;;11.18;2.83;;;20.60;99.90;;;;;;5070210;28;20040;-46
2022/08/29 13:05:40;;;;;;;7.75;2.85;;;20.70;99.90;;;;;;5062206;28;20040;-46
2022/08/29 13:08:26;;;;;;;9.05;2.55;;;20.60;99.90;;;;;;5065316;28;20056;-49